Time;durP1;ratioP1;P1;durP2;ratioP2;P2;SDS_P1;SDS_P2;PMS_P1;PMS_P2;Temp;Humidity;BMP_temperature;BMP_pressure;BME280_temperature;BME280_humidity;BME280_pressure;Samples;Min_cycle;Max_cycle;Signal;HPM_P1;HPM_P2
2021/12/06 00:00:59;;;;;;;14.83;8.17;;;0.50;99.90;;;;;;5051969;28;20032;-86
2021/12/06 00:03:33;;;;;;;10.93;7.00;;;0.50;99.90;;;;;;5051673;28;20037;-86
2021/12/06 00:05:59;;;;;;;10.87;7.20;;;0.40;99.90;;;;;;5051828;28;20033;-86
2021/12/06 00:08:25;;;;;;;14.07;7.43;;;0.40;99.90;;;;;;5049995;28;20466;-86
2021/12/06 00:10:51;;;;;;;12.43;7.53;;;0.40;99.90;;;;;;5010315;28;20105;-86
2021/12/06 00:13:23;;;;;;;17.03;8.00;;;0.30;99.90;;;;;;4950841;28;20042;-85
2021/12/06 00:15:50;;;;;;;14.43;7.67;;;0.30;99.90;;;;;;4950814;28;20031;-85
2021/12/06 00:18:16;;;;;;;12.67;7.87;;;0.30;99.90;;;;;;4950611;28;20030;-86
2021/12/06 00:20:42;;;;;;;15.07;8.37;;;0.30;99.90;;;;;;4973200;28;20425;-86
2021/12/06 00:23:07;;;;;;;14.00;7.40;;;0.20;99.90;;;;;;5051398;28;20032;-86
2021/12/06 00:25:35;;;;;;;14.13;8.20;;;0.20;99.90;;;;;;5051026;28;20017;-85
2021/12/06 00:28:00;;;;;;;18.07;8.50;;;0.20;99.90;;;;;;5044081;28;20032;-86
2021/12/06 00:30:26;;;;;;;14.17;7.57;;;0.10;99.90;;;;;;5051237;28;20029;-85
2021/12/06 00:32:51;;;;;;;11.53;8.20;;;0.20;99.90;;;;;;5026792;28;20535;-86
2021/12/06 00:35:19;;;;;;;12.47;7.23;;;0.20;99.90;;;;;;4950300;29;20019;-86
2021/12/06 00:37:55;;;;;;;13.43;7.40;;;0.10;99.90;;;;;;4986740;28;20017;-85
2021/12/06 00:40:22;;;;;;;14.67;6.67;;;0.20;99.90;;;;;;5051059;28;20086;-86
2021/12/06 00:42:47;;;;;;;11.50;7.17;;;0.10;99.90;;;;;;5051364;28;20036;-86
2021/12/06 00:45:16;;;;;;;13.07;6.77;;;0.10;99.90;;;;;;5050958;28;20024;-85
2021/12/06 00:47:41;;;;;;;13.73;7.23;;;0.20;99.90;;;;;;5017977;28;20042;-86
2021/12/06 00:50:07;;;;;;;9.90;6.80;;;0.20;99.90;;;;;;4950459;28;20031;-86
2021/12/06 00:52:33;;;;;;;13.40;6.90;;;0.20;99.90;;;;;;4950189;29;20487;-86
2021/12/06 00:54:59;;;;;;;11.83;7.23;;;0.20;99.90;;;;;;4949928;29;20061;-86
2021/12/06 00:57:25;;;;;;;11.37;7.67;;;0.20;99.90;;;;;;4982015;28;20033;-86
2021/12/06 00:59:51;;;;;;;9.67;6.20;;;0.20;99.90;;;;;;5050889;28;20039;-86
2021/12/06 01:02:17;;;;;;;9.90;6.40;;;0.20;99.90;;;;;;5050878;28;20032;-86
2021/12/06 01:04:45;;;;;;;11.33;6.77;;;0.40;99.90;;;;;;4985386;28;20096;-86
2021/12/06 01:07:12;;;;;;;12.87;7.13;;;0.40;99.90;;;;;;4950044;28;20031;-86
2021/12/06 01:09:37;;;;;;;11.87;6.73;;;0.40;99.90;;;;;;4950053;28;20028;-86
2021/12/06 01:12:04;;;;;;;11.60;7.50;;;0.40;99.90;;;;;;4949937;28;20365;-85
2021/12/06 01:14:30;;;;;;;13.40;8.60;;;0.40;99.90;;;;;;4964552;28;20035;-86
2021/12/06 01:16:56;;;;;;;11.03;7.23;;;0.40;99.90;;;;;;4949969;29;20093;-86
2021/12/06 01:19:28;;;;;;;15.57;9.07;;;0.40;99.90;;;;;;4948661;28;20081;-85
2021/12/06 01:22:09;;;;;;;14.97;9.13;;;0.40;99.90;;;;;;4950064;28;20039;-86
2021/12/06 01:24:42;;;;;;;16.70;9.53;;;0.40;99.90;;;;;;5019519;28;20033;-86
2021/12/06 01:29:48;;;;;;;16.73;11.40;;;0.40;99.90;;;;;;5050636;28;20070;-86
2021/12/06 01:32:36;;;;;;;17.80;11.77;;;0.50;99.90;;;;;;5050408;28;20445;-86
2021/12/06 01:40:21;;;;;;;15.60;11.55;;;0.60;99.90;;;;;;5050833;28;20112;-86
2021/12/06 01:42:47;;;;;;;16.77;11.50;;;0.70;99.90;;;;;;4987912;28;20035;-86
2021/12/06 01:45:13;;;;;;;17.50;11.23;;;0.70;99.90;;;;;;4949721;28;20133;-86
2021/12/06 01:47:40;;;;;;;23.67;13.23;;;0.70;99.90;;;;;;4948311;28;20476;-86
2021/12/06 01:50:16;;;;;;;21.87;14.37;;;0.60;99.90;;;;;;4949656;28;20109;-86
2021/12/06 01:52:45;;;;;;;20.30;13.57;;;0.70;99.90;;;;;;5009022;28;20028;-85
2021/12/06 01:55:15;;;;;;;25.60;14.43;;;0.70;99.90;;;;;;5047255;28;20036;-86
2021/12/06 01:57:41;;;;;;;25.00;15.47;;;0.60;99.90;;;;;;5052241;28;20021;-83
2021/12/06 02:00:18;;;;;;;21.43;14.67;;;0.60;99.90;;;;;;5052123;28;20029;-83
2021/12/06 02:02:44;;;;;;;24.00;15.27;;;0.60;99.90;;;;;;5052232;28;20061;-83
2021/12/06 02:05:09;;;;;;;21.83;16.10;;;0.60;99.90;;;;;;5050724;28;20083;-83
2021/12/06 02:07:35;;;;;;;21.07;15.50;;;0.60;99.90;;;;;;5053662;28;20083;-83
2021/12/06 02:10:02;;;;;;;22.90;15.53;;;0.60;99.90;;;;;;5055869;28;20051;-83
2021/12/06 02:12:31;;;;;;;24.97;16.90;;;0.60;99.90;;;;;;5055567;28;20021;-83
2021/12/06 02:15:03;;;;;;;29.40;17.03;;;0.60;99.90;;;;;;5055692;28;20033;-83
2021/12/06 02:17:35;;;;;;;27.00;18.03;;;0.60;99.90;;;;;;4933640;29;20392;-83
2021/12/06 02:20:13;;;;;;;28.43;19.03;;;0.70;99.90;;;;;;4947813;29;20488;-83
2021/12/06 02:22:39;;;;;;;24.30;17.23;;;0.70;99.90;;;;;;4951572;28;20492;-83
2021/12/06 02:25:08;;;;;;;24.80;17.80;;;0.70;99.90;;;;;;4954088;28;20040;-83
2021/12/06 02:27:34;;;;;;;28.80;17.60;;;0.70;99.90;;;;;;4954142;28;20046;-83
2021/12/06 02:30:03;;;;;;;24.53;18.10;;;0.70;99.90;;;;;;4954087;29;20074;-83
2021/12/06 02:32:29;;;;;;;25.57;16.50;;;0.70;99.90;;;;;;4953830;28;20071;-83
2021/12/06 02:34:56;;;;;;;25.37;17.97;;;0.80;99.90;;;;;;4954211;29;20027;-83
2021/12/06 02:37:27;;;;;;;25.83;17.67;;;0.80;99.90;;;;;;4954117;28;20047;-83
2021/12/06 02:39:53;;;;;;;26.23;17.57;;;0.80;99.90;;;;;;4954085;28;20020;-83
2021/12/06 02:42:20;;;;;;;26.00;16.83;;;0.80;99.90;;;;;;4953872;28;20027;-83
2021/12/06 02:44:48;;;;;;;28.10;17.20;;;0.80;99.90;;;;;;4953914;28;20031;-83
2021/12/06 02:47:16;;;;;;;28.20;17.80;;;0.80;99.90;;;;;;4954019;29;20039;-83
2021/12/06 02:49:42;;;;;;;27.10;17.10;;;0.80;99.90;;;;;;4953577;28;20063;-83
2021/12/06 02:52:09;;;;;;;26.13;17.67;;;0.80;99.90;;;;;;4953724;28;20027;-83
2021/12/06 02:54:35;;;;;;;26.77;17.50;;;0.80;99.90;;;;;;4953717;28;20027;-83
2021/12/06 02:59:37;;;;;;;24.95;15.98;;;0.80;99.90;;;;;;4956752;28;20108;-83
2021/12/06 03:02:06;;;;;;;20.97;16.20;;;0.80;99.90;;;;;;5049807;28;20060;-83
2021/12/06 03:04:32;;;;;;;28.57;17.07;;;0.80;99.90;;;;;;4955379;28;20034;-83
2021/12/06 03:06:59;;;;;;;28.83;17.40;;;0.80;99.90;;;;;;4953639;28;20029;-83
2021/12/06 03:09:28;;;;;;;27.90;17.43;;;0.80;99.90;;;;;;4953854;28;20023;-83
2021/12/06 03:11:58;;;;;;;25.03;18.30;;;0.80;99.90;;;;;;4953338;28;20081;-83
2021/12/06 03:14:29;;;;;;;29.80;18.40;;;0.80;99.90;;;;;;5032141;28;20032;-83
2021/12/06 03:16:58;;;;;;;34.17;18.87;;;0.80;99.90;;;;;;5054231;28;20029;-83
2021/12/06 03:19:23;;;;;;;26.83;19.43;;;0.80;99.90;;;;;;5029696;28;20018;-83
2021/12/06 03:21:50;;;;;;;27.07;18.27;;;0.80;99.90;;;;;;4953447;28;20039;-83
2021/12/06 03:24:15;;;;;;;32.00;19.80;;;0.80;99.90;;;;;;4953289;28;20085;-83
2021/12/06 03:26:42;;;;;;;27.47;19.23;;;0.80;99.90;;;;;;4953081;29;20476;-83
2021/12/06 03:29:08;;;;;;;31.27;20.17;;;0.80;99.90;;;;;;4953363;28;20063;-83
2021/12/06 03:31:34;;;;;;;29.37;19.83;;;0.90;99.90;;;;;;4953052;28;20126;-83
2021/12/06 03:34:00;;;;;;;32.17;21.27;;;0.90;99.90;;;;;;4959702;28;20102;-83
2021/12/06 03:36:28;;;;;;;29.30;19.27;;;0.90;99.90;;;;;;5053926;28;20016;-83
2021/12/06 03:38:55;;;;;;;29.97;19.97;;;0.90;99.90;;;;;;5053895;28;20362;-83
2021/12/06 03:41:23;;;;;;;28.43;18.73;;;0.90;99.90;;;;;;5053812;28;20039;-83
2021/12/06 03:43:49;;;;;;;28.70;19.33;;;0.90;99.90;;;;;;5052523;28;20512;-83
2021/12/06 03:46:17;;;;;;;36.80;20.47;;;0.80;99.90;;;;;;5053861;28;20079;-83
2021/12/06 03:48:43;;;;;;;32.90;20.50;;;0.80;99.90;;;;;;5053850;28;20109;-83
2021/12/06 03:51:08;;;;;;;33.53;20.47;;;0.90;99.90;;;;;;5052338;28;20043;-83
2021/12/06 03:53:34;;;;;;;36.03;20.47;;;0.90;99.90;;;;;;5052251;28;20064;-83
2021/12/06 03:56:00;;;;;;;33.60;19.50;;;0.80;99.90;;;;;;5053647;28;20033;-83
2021/12/06 03:58:26;;;;;;;32.90;21.07;;;0.80;99.90;;;;;;5050447;28;20029;-85
2021/12/06 04:00:52;;;;;;;33.77;20.50;;;0.80;99.90;;;;;;5051773;28;20021;-86
2021/12/06 04:03:20;;;;;;;33.37;20.23;;;0.80;99.90;;;;;;5051633;28;20093;-85
2021/12/06 04:05:45;;;;;;;34.97;20.83;;;0.90;99.90;;;;;;4965018;28;20039;-86
2021/12/06 04:08:11;;;;;;;35.40;21.13;;;0.90;99.90;;;;;;4949638;28;20054;-84
2021/12/06 04:10:37;;;;;;;33.77;21.60;;;0.90;99.90;;;;;;4950911;29;20197;-85
2021/12/06 04:13:03;;;;;;;36.87;21.77;;;0.90;99.90;;;;;;4950615;29;20042;-85
2021/12/06 04:15:29;;;;;;;35.37;21.57;;;0.90;99.90;;;;;;4971091;28;20527;-84
2021/12/06 04:17:57;;;;;;;35.23;21.37;;;0.80;99.90;;;;;;4950833;28;20046;-85
2021/12/06 04:20:24;;;;;;;35.20;21.60;;;0.80;99.90;;;;;;4949440;28;20053;-84
2021/12/06 04:22:50;;;;;;;32.40;20.57;;;0.80;99.90;;;;;;4949152;29;20388;-85
2021/12/06 04:25:18;;;;;;;33.87;21.67;;;0.80;99.90;;;;;;4974026;28;20401;-85
2021/12/06 04:27:50;;;;;;;35.03;21.90;;;0.80;99.90;;;;;;5050635;28;20454;-85
2021/12/06 04:30:17;;;;;;;40.20;22.63;;;0.90;99.90;;;;;;5050274;28;20021;-85
2021/12/06 04:32:42;;;;;;;38.33;22.07;;;0.90;99.90;;;;;;5050537;28;20036;-85
2021/12/06 04:35:08;;;;;;;34.60;22.17;;;0.80;99.90;;;;;;4985954;28;20543;-85
2021/12/06 04:37:34;;;;;;;36.10;21.80;;;0.90;99.90;;;;;;4950800;28;20031;-84
2021/12/06 04:40:00;;;;;;;36.30;22.43;;;0.80;99.90;;;;;;4949188;28;20072;-85
2021/12/06 04:42:26;;;;;;;39.77;23.63;;;0.90;99.90;;;;;;4950567;28;20039;-85
2021/12/06 04:44:51;;;;;;;36.57;21.00;;;0.90;99.90;;;;;;4952374;28;20110;-84
2021/12/06 04:47:17;;;;;;;37.30;21.73;;;0.90;99.90;;;;;;4950882;29;20043;-84
2021/12/06 04:49:42;;;;;;;40.23;22.20;;;0.80;99.90;;;;;;4950833;29;20117;-85
2021/12/06 04:52:11;;;;;;;35.57;21.47;;;0.80;99.90;;;;;;4950184;29;20050;-85
2021/12/06 04:54:43;;;;;;;37.27;22.37;;;0.80;99.90;;;;;;4950545;28;20089;-85
2021/12/06 04:57:12;;;;;;;39.13;21.17;;;0.80;99.90;;;;;;4957414;28;20039;-85
2021/12/06 04:59:42;;;;;;;40.50;22.47;;;0.80;99.90;;;;;;4950512;28;20110;-85
2021/12/06 05:02:16;;;;;;;41.17;22.50;;;0.80;99.90;;;;;;4950598;28;20035;-85
2021/12/06 05:04:47;;;;;;;38.00;21.43;;;0.80;99.90;;;;;;4951822;28;20373;-85
2021/12/06 05:07:28;;;;;;;35.03;21.73;;;0.80;99.90;;;;;;4950293;28;20079;-85
2021/12/06 05:09:54;;;;;;;41.00;22.47;;;0.80;99.90;;;;;;4950025;28;20040;-85
2021/12/06 05:12:24;;;;;;;41.47;22.20;;;0.90;99.90;;;;;;4957319;28;20676;-85
2021/12/06 05:14:50;;;;;;;35.57;21.20;;;0.90;99.90;;;;;;5044251;28;20021;-85
2021/12/06 05:17:16;;;;;;;37.13;21.63;;;0.90;99.90;;;;;;5035400;28;20532;-83
2021/12/06 05:19:41;;;;;;;36.20;22.10;;;0.90;99.90;;;;;;4948076;28;20044;-82
2021/12/06 05:22:08;;;;;;;34.13;20.97;;;0.90;99.90;;;;;;4949373;29;20073;-82
2021/12/06 05:24:34;;;;;;;36.67;21.53;;;0.90;99.90;;;;;;4948943;28;20096;-83
2021/12/06 05:27:00;;;;;;;35.90;21.43;;;0.90;99.90;;;;;;4949634;28;20114;-78
2021/12/06 05:29:28;;;;;;;36.67;22.00;;;0.90;99.90;;;;;;4951418;28;20555;-77
2021/12/06 05:31:57;;;;;;;38.53;21.90;;;0.90;99.90;;;;;;4951420;28;20340;-77
2021/12/06 05:34:36;;;;;;;36.33;22.37;;;0.90;99.90;;;;;;4950099;28;20031;-78
2021/12/06 05:37:03;;;;;;;35.63;20.80;;;0.90;99.90;;;;;;4951420;28;20031;-77
2021/12/06 05:39:31;;;;;;;36.53;21.20;;;0.90;99.90;;;;;;4951388;28;20097;-77
2021/12/06 05:42:04;;;;;;;32.50;21.00;;;0.90;99.90;;;;;;4951801;28;20031;-77
2021/12/06 05:44:31;;;;;;;37.37;21.13;;;0.90;99.90;;;;;;4954602;28;20108;-77
2021/12/06 05:46:57;;;;;;;32.33;21.03;;;0.90;99.90;;;;;;4961706;28;20472;-77
2021/12/06 05:49:22;;;;;;;32.70;20.63;;;0.90;99.90;;;;;;4954513;28;20046;-78
2021/12/06 05:51:49;;;;;;;30.97;20.07;;;1.00;99.90;;;;;;4954651;28;20035;-78
2021/12/06 05:54:14;;;;;;;31.60;19.87;;;0.90;99.90;;;;;;4953914;28;20131;-77
2021/12/06 05:56:41;;;;;;;32.97;20.90;;;0.90;99.90;;;;;;4958349;28;20450;-77
2021/12/06 05:59:07;;;;;;;29.83;19.50;;;0.90;99.90;;;;;;4953769;28;20415;-77
2021/12/06 06:01:33;;;;;;;29.57;19.70;;;1.00;99.90;;;;;;4951735;28;20506;-77
2021/12/06 06:04:01;;;;;;;33.20;21.00;;;1.00;99.90;;;;;;4951520;28;20110;-77
2021/12/06 06:06:31;;;;;;;32.67;20.43;;;0.90;99.90;;;;;;4949219;28;20035;-77
2021/12/06 06:08:57;;;;;;;30.80;19.80;;;1.00;99.90;;;;;;4943979;28;20373;-77
2021/12/06 06:11:23;;;;;;;32.77;20.17;;;1.00;99.90;;;;;;4973456;28;20098;-79
2021/12/06 06:13:48;;;;;;;30.70;20.00;;;1.00;99.90;;;;;;4956110;28;20486;-79
2021/12/06 06:16:18;;;;;;;34.90;21.80;;;0.90;99.90;;;;;;4953581;28;20032;-79
2021/12/06 06:18:44;;;;;;;30.27;19.70;;;0.90;99.90;;;;;;4952801;28;20023;-77
2021/12/06 06:21:10;;;;;;;31.73;20.23;;;1.00;99.90;;;;;;4951232;28;20050;-77
2021/12/06 06:23:35;;;;;;;30.97;19.87;;;0.90;99.90;;;;;;4951697;29;20034;-77
2021/12/06 06:26:01;;;;;;;30.07;18.17;;;1.00;99.90;;;;;;4951850;28;20460;-77
2021/12/06 06:28:27;;;;;;;28.03;17.47;;;1.00;99.90;;;;;;4951628;28;20069;-82
2021/12/06 06:30:52;;;;;;;29.43;18.50;;;1.00;99.90;;;;;;4950439;29;20187;-82
2021/12/06 06:33:18;;;;;;;31.10;20.20;;;1.00;99.90;;;;;;4953742;28;20333;-78
2021/12/06 06:35:44;;;;;;;30.53;18.47;;;1.00;99.90;;;;;;5054616;28;20048;-78
2021/12/06 06:38:09;;;;;;;27.13;17.37;;;1.00;99.90;;;;;;5053313;28;20032;-82
2021/12/06 06:40:35;;;;;;;28.07;18.77;;;0.90;99.90;;;;;;5014107;28;20453;-80
2021/12/06 06:43:01;;;;;;;29.07;18.17;;;0.90;99.90;;;;;;4997171;28;20043;-77
2021/12/06 06:45:27;;;;;;;37.00;18.83;;;0.90;99.90;;;;;;5001771;28;20033;-78
2021/12/06 06:47:52;;;;;;;29.23;16.13;;;0.90;99.90;;;;;;5010102;28;20611;-78
2021/12/06 06:50:18;;;;;;;24.43;15.00;;;0.90;99.90;;;;;;4995814;28;20770;-78
2021/12/06 06:52:44;;;;;;;24.83;16.13;;;0.90;99.90;;;;;;4984989;28;20032;-80
2021/12/06 06:55:11;;;;;;;29.40;17.03;;;0.90;99.90;;;;;;5000894;28;20373;-81
2021/12/06 06:57:38;;;;;;;23.70;15.10;;;0.80;99.90;;;;;;4990845;28;20408;-82
2021/12/06 07:00:35;;;;;;;27.33;14.47;;;0.90;99.90;;;;;;4994667;28;20057;-82
2021/12/06 07:03:03;;;;;;;24.03;15.57;;;0.90;99.90;;;;;;5001619;28;20438;-78
2021/12/06 07:05:29;;;;;;;27.07;16.87;;;0.90;99.90;;;;;;5000925;28;20044;-82
2021/12/06 07:07:55;;;;;;;30.50;17.27;;;0.80;99.90;;;;;;4993931;28;20119;-82
2021/12/06 07:10:23;;;;;;;28.83;16.60;;;0.80;99.90;;;;;;4994495;28;20120;-77
2021/12/06 07:12:51;;;;;;;25.37;15.67;;;0.80;99.90;;;;;;5010757;28;20045;-78
2021/12/06 07:15:26;;;;;;;26.17;15.80;;;0.90;99.90;;;;;;4985764;28;20035;-78
2021/12/06 07:17:51;;;;;;;24.27;15.60;;;0.90;99.90;;;;;;4991151;28;20462;-78
2021/12/06 07:20:18;;;;;;;27.07;15.73;;;0.90;99.90;;;;;;4990714;28;20159;-78
2021/12/06 07:22:47;;;;;;;25.47;16.80;;;1.00;99.90;;;;;;5001010;28;20029;-80
2021/12/06 07:25:14;;;;;;;28.53;15.87;;;1.00;99.90;;;;;;5002370;28;20043;-78
2021/12/06 07:27:41;;;;;;;23.33;16.27;;;1.00;99.90;;;;;;4978615;28;20067;-78
2021/12/06 07:30:09;;;;;;;29.70;17.73;;;1.00;99.90;;;;;;4985516;28;20063;-80
2021/12/06 07:32:34;;;;;;;25.67;16.73;;;1.00;99.90;;;;;;4995288;28;20043;-80
2021/12/06 07:35:00;;;;;;;29.83;19.03;;;1.00;99.90;;;;;;5010217;28;20157;-80
2021/12/06 07:37:28;;;;;;;27.90;18.20;;;1.00;99.90;;;;;;4998497;28;20058;-80
2021/12/06 07:39:54;;;;;;;33.53;19.17;;;1.00;99.90;;;;;;4967838;28;20034;-80
2021/12/06 07:42:21;;;;;;;35.50;19.77;;;1.00;99.90;;;;;;4987028;28;20050;-80
2021/12/06 07:44:47;;;;;;;36.23;19.13;;;1.00;99.90;;;;;;4954093;28;20027;-78
2021/12/06 07:47:13;;;;;;;37.07;20.10;;;1.00;99.90;;;;;;4961871;28;20038;-80
2021/12/06 07:49:39;;;;;;;37.77;19.83;;;1.00;99.90;;;;;;4955010;28;20055;-78
2021/12/06 07:52:06;;;;;;;39.90;20.10;;;1.00;99.90;;;;;;4966266;28;20031;-78
2021/12/06 07:54:33;;;;;;;39.60;21.17;;;1.00;99.90;;;;;;4958524;28;20045;-78
2021/12/06 07:57:00;;;;;;;41.90;22.60;;;1.00;99.90;;;;;;4961060;28;20364;-78
2021/12/06 07:59:26;;;;;;;49.37;24.80;;;1.00;99.90;;;;;;4971977;28;20019;-81
2021/12/06 08:01:52;;;;;;;53.30;26.00;;;1.00;99.90;;;;;;4966050;28;20102;-83
2021/12/06 08:04:20;;;;;;;47.17;24.27;;;1.00;99.90;;;;;;4966124;28;20430;-78
2021/12/06 08:06:50;;;;;;;50.17;23.13;;;1.00;99.90;;;;;;4959920;28;20448;-78
2021/12/06 08:09:20;;;;;;;49.87;23.97;;;1.00;99.90;;;;;;4961790;28;20027;-78
2021/12/06 08:11:47;;;;;;;47.27;22.33;;;1.10;99.90;;;;;;4952902;28;20023;-78
2021/12/06 08:14:13;;;;;;;47.60;23.57;;;1.00;99.90;;;;;;4983419;28;20027;-81
2021/12/06 08:16:46;;;;;;;51.83;23.93;;;1.10;99.90;;;;;;4998866;28;20078;-79
2021/12/06 08:19:13;;;;;;;43.50;23.13;;;1.10;99.90;;;;;;4973420;28;20031;-80
2021/12/06 08:21:39;;;;;;;41.37;20.63;;;1.10;99.90;;;;;;4960597;28;20039;-79
2021/12/06 08:24:07;;;;;;;42.90;22.50;;;1.10;99.90;;;;;;4985864;28;20031;-82
2021/12/06 08:26:39;;;;;;;37.70;20.67;;;1.20;99.90;;;;;;4949362;28;20133;-82
2021/12/06 08:29:08;;;;;;;40.03;21.17;;;1.20;99.90;;;;;;4948883;28;20042;-83
2021/12/06 08:31:41;;;;;;;39.40;20.53;;;1.20;99.90;;;;;;4948752;28;20027;-83
2021/12/06 08:34:07;;;;;;;42.70;22.63;;;1.20;99.90;;;;;;4951731;28;20034;-77
2021/12/06 08:36:33;;;;;;;40.57;21.23;;;1.30;99.90;;;;;;4953070;29;20094;-77
2021/12/06 08:38:59;;;;;;;43.03;21.33;;;1.40;99.90;;;;;;4952751;28;20023;-76
2021/12/06 08:41:28;;;;;;;40.93;21.70;;;1.30;99.90;;;;;;4950625;28;20043;-79
2021/12/06 08:43:56;;;;;;;43.77;22.27;;;1.30;99.90;;;;;;4958362;28;20028;-81
2021/12/06 08:46:26;;;;;;;39.87;21.03;;;1.40;99.90;;;;;;5041215;28;20025;-76
2021/12/06 08:48:53;;;;;;;45.00;22.77;;;1.40;99.90;;;;;;5049400;28;20029;-81
2021/12/06 08:51:32;;;;;;;39.80;20.73;;;1.40;99.90;;;;;;4978754;28;20031;-82
2021/12/06 08:54:00;;;;;;;39.83;21.80;;;1.40;99.90;;;;;;4953247;28;20483;-77
2021/12/06 08:56:27;;;;;;;47.07;23.60;;;1.40;99.90;;;;;;4952250;28;20027;-81
2021/12/06 08:58:53;;;;;;;43.20;22.53;;;1.40;99.90;;;;;;4955335;28;20827;-82
2021/12/06 09:01:21;;;;;;;41.80;21.93;;;1.50;99.90;;;;;;4968948;28;20028;-82
2021/12/06 09:03:49;;;;;;;42.47;21.97;;;1.50;99.90;;;;;;5029599;28;20068;-82
2021/12/06 09:06:15;;;;;;;44.90;23.13;;;1.50;99.90;;;;;;4974733;28;20039;-82
2021/12/06 09:08:41;;;;;;;41.73;21.60;;;1.50;99.90;;;;;;4949206;29;20015;-82
2021/12/06 09:11:08;;;;;;;37.37;20.27;;;1.60;99.90;;;;;;4949181;28;20384;-82
2021/12/06 09:13:35;;;;;;;41.83;21.57;;;1.50;99.90;;;;;;4950855;28;20035;-77
2021/12/06 09:16:04;;;;;;;40.60;19.50;;;1.50;99.90;;;;;;4964324;28;20027;-80
2021/12/06 09:18:34;;;;;;;36.53;19.47;;;1.60;99.90;;;;;;4991586;28;20027;-77
2021/12/06 09:21:02;;;;;;;38.07;20.70;;;1.60;99.90;;;;;;4952106;28;20047;-77
2021/12/06 09:23:29;;;;;;;36.37;18.60;;;1.70;99.90;;;;;;4952252;28;20023;-77
2021/12/06 09:25:55;;;;;;;38.23;20.33;;;1.70;99.90;;;;;;4951564;28;20039;-78
2021/12/06 09:28:21;;;;;;;38.50;19.40;;;1.70;99.90;;;;;;4951913;28;20110;-82
2021/12/06 09:30:47;;;;;;;36.13;18.43;;;1.70;99.90;;;;;;4952148;28;20031;-80
2021/12/06 09:33:15;;;;;;;36.53;20.33;;;1.80;99.90;;;;;;4950338;29;20553;-77
2021/12/06 09:35:44;;;;;;;33.67;19.60;;;1.70;99.90;;;;;;4949755;28;20527;-81
2021/12/06 09:38:12;;;;;;;34.90;19.03;;;1.80;99.90;;;;;;4983823;28;20445;-80
2021/12/06 09:40:43;;;;;;;36.93;21.40;;;1.80;99.90;;;;;;4975647;28;20031;-79
2021/12/06 09:43:11;;;;;;;34.60;19.10;;;1.90;99.90;;;;;;4952472;28;20032;-79
2021/12/06 09:45:37;;;;;;;41.93;21.03;;;1.90;99.90;;;;;;4952332;28;20102;-78
2021/12/06 09:48:04;;;;;;;35.53;18.97;;;2.00;99.90;;;;;;4952063;28;20487;-79
2021/12/06 09:50:37;;;;;;;31.83;18.37;;;2.10;99.90;;;;;;4951894;28;20361;-79
2021/12/06 09:53:06;;;;;;;33.73;18.43;;;2.20;99.90;;;;;;4990633;28;20071;-79
2021/12/06 09:55:33;;;;;;;32.03;18.80;;;2.30;99.90;;;;;;5052348;28;20079;-79
2021/12/06 09:57:59;;;;;;;38.20;20.73;;;2.30;99.90;;;;;;5052501;28;20025;-79
2021/12/06 10:00:29;;;;;;;38.47;20.17;;;2.40;99.90;;;;;;5052829;28;20047;-79
2021/12/06 10:02:55;;;;;;;37.53;19.90;;;2.50;99.90;;;;;;5053078;28;20022;-79
2021/12/06 10:05:26;;;;;;;35.53;18.73;;;2.50;99.90;;;;;;5052413;28;20044;-78
2021/12/06 10:07:53;;;;;;;35.37;19.03;;;2.50;99.90;;;;;;5052570;28;20094;-79
2021/12/06 10:10:18;;;;;;;29.00;17.23;;;2.50;99.90;;;;;;5052445;28;20033;-79
2021/12/06 10:12:48;;;;;;;33.80;16.77;;;2.50;99.90;;;;;;5052686;28;20079;-79
2021/12/06 10:15:14;;;;;;;29.40;17.47;;;2.50;99.90;;;;;;5006981;28;20031;-80
2021/12/06 10:17:41;;;;;;;31.43;17.40;;;2.50;99.90;;;;;;4950070;28;20038;-79
2021/12/06 10:20:08;;;;;;;31.83;18.60;;;2.40;99.90;;;;;;4951389;28;20039;-79
2021/12/06 10:22:35;;;;;;;32.40;16.57;;;2.40;99.90;;;;;;4951751;28;20081;-79
2021/12/06 10:25:01;;;;;;;33.80;18.43;;;2.40;99.90;;;;;;4951682;28;20426;-79
2021/12/06 10:27:28;;;;;;;31.67;17.83;;;2.40;99.90;;;;;;4951387;28;20031;-79
2021/12/06 10:30:09;;;;;;;33.93;19.63;;;2.30;99.90;;;;;;4954508;28;20027;-79
2021/12/06 10:32:39;;;;;;;32.57;18.80;;;2.30;99.90;;;;;;4954550;28;20039;-79
2021/12/06 10:35:14;;;;;;;29.97;18.80;;;2.20;99.90;;;;;;4954621;28;20073;-79
2021/12/06 10:37:47;;;;;;;;;;;2.20;99.90;;;;;;4954940;28;20020;-79
2021/12/06 10:40:20;;;;;;;32.23;18.50;;;2.30;99.90;;;;;;4954790;28;20015;-79
2021/12/06 10:42:48;;;;;;;34.33;20.93;;;2.30;99.90;;;;;;4953166;28;20492;-79
2021/12/06 10:45:24;;;;;;;28.87;18.70;;;2.30;99.90;;;;;;4954746;28;20420;-79
2021/12/06 10:48:19;;;;;;;32.57;17.97;;;2.30;99.90;;;;;;4954581;28;20038;-79
2021/12/06 10:50:51;;;;;;;34.58;18.30;;;2.30;99.90;;;;;;4954616;28;20150;-78
2021/12/06 10:53:23;;;;;;;28.47;17.27;;;2.40;99.90;;;;;;4969093;28;20046;-78
2021/12/06 10:55:52;;;;;;;25.87;16.47;;;2.50;99.90;;;;;;4954698;28;20414;-79
2021/12/06 10:58:21;;;;;;;26.23;16.73;;;2.50;99.90;;;;;;4954483;28;20024;-79
2021/12/06 11:00:56;;;;;;;28.90;18.00;;;2.50;99.90;;;;;;4952946;28;20355;-79
2021/12/06 11:03:24;;;;;;;;;;;2.40;99.90;;;;;;4954590;28;20042;-79
2021/12/06 11:05:55;;;;;;;35.30;19.10;;;2.40;99.90;;;;;;4954360;28;19917;-79
2021/12/06 11:08:22;;;;;;;34.53;19.50;;;2.30;99.90;;;;;;4968788;28;20028;-79
2021/12/06 11:10:53;;;;;;;31.77;18.90;;;2.20;99.90;;;;;;4954492;28;20093;-79
2021/12/06 11:13:28;;;;;;;34.40;20.33;;;2.20;99.90;;;;;;4953943;28;20031;-78
2021/12/06 11:16:06;;;;;;;31.83;19.50;;;2.20;99.90;;;;;;4954635;28;20024;-79
2021/12/06 11:18:38;;;;;;;33.00;19.63;;;2.20;99.90;;;;;;4959602;28;20029;-82
2021/12/06 11:21:21;;;;;;;32.33;19.37;;;2.30;99.90;;;;;;4982269;28;20487;-77
2021/12/06 11:24:07;;;;;;;30.60;18.70;;;2.20;99.90;;;;;;4958388;28;20122;-82
2021/12/06 11:26:35;;;;;;;32.83;19.97;;;2.20;99.90;;;;;;4994221;28;20483;-82
2021/12/06 11:29:28;;;;;;;32.03;19.60;;;2.20;99.90;;;;;;4993966;28;20029;-82
2021/12/06 11:31:59;;;;;;;36.57;19.90;;;2.10;99.90;;;;;;4989722;28;20050;-81
2021/12/06 11:34:30;;;;;;;31.20;18.73;;;2.20;99.90;;;;;;5004384;28;20021;-77
2021/12/06 11:36:56;;;;;;;31.23;18.10;;;2.10;99.90;;;;;;5055387;28;20415;-77
2021/12/06 11:39:23;;;;;;;30.83;18.77;;;2.20;99.90;;;;;;5053553;28;20412;-77
2021/12/06 11:41:54;;;;;;;30.77;17.53;;;2.10;99.90;;;;;;4966001;28;20031;-77
2021/12/06 11:44:46;;;;;;;28.13;17.40;;;2.20;99.90;;;;;;4968459;28;20036;-77
2021/12/06 11:47:14;;;;;;;29.37;18.00;;;2.20;99.90;;;;;;4958594;28;20543;-78
2021/12/06 11:49:53;;;;;;;28.80;17.03;;;2.20;99.90;;;;;;4953463;28;20038;-77
2021/12/06 11:52:24;;;;;;;33.60;19.30;;;2.30;99.90;;;;;;5024584;28;20041;-77
2021/12/06 11:55:03;;;;;;;30.93;17.93;;;2.30;99.90;;;;;;5053060;28;20048;-77
2021/12/06 11:57:41;;;;;;;26.40;17.03;;;2.40;99.90;;;;;;5053370;28;20132;-77
2021/12/06 12:00:10;;;;;;;28.33;17.70;;;2.60;99.90;;;;;;5054045;28;20043;-77
2021/12/06 12:02:40;;;;;;;31.30;19.30;;;2.50;99.90;;;;;;5052797;28;20057;-77
2021/12/06 12:05:22;;;;;;;32.27;20.13;;;2.40;99.90;;;;;;5052706;28;20071;-77
2021/12/06 12:08:15;;;;;;;35.50;19.90;;;2.40;99.90;;;;;;5054146;28;20048;-77
2021/12/06 12:10:44;;;;;;;35.10;19.90;;;2.30;99.90;;;;;;5049456;28;20595;-77
2021/12/06 12:13:13;;;;;;;32.50;18.60;;;2.20;99.90;;;;;;5053938;28;20115;-77
2021/12/06 12:15:39;;;;;;;32.30;18.83;;;2.30;99.90;;;;;;5039123;28;20488;-77
2021/12/06 12:18:06;;;;;;;34.53;20.27;;;2.20;99.90;;;;;;4951857;29;20031;-77
2021/12/06 12:20:35;;;;;;;31.50;18.83;;;2.20;99.90;;;;;;4951568;29;20050;-77
2021/12/06 12:23:05;;;;;;;34.40;18.83;;;2.20;99.90;;;;;;4952999;28;20059;-77
2021/12/06 12:25:36;;;;;;;31.80;18.27;;;2.20;99.90;;;;;;4953218;28;20500;-77
2021/12/06 12:28:18;;;;;;;33.60;18.80;;;2.20;99.90;;;;;;4953101;28;20155;-77
2021/12/06 12:30:46;;;;;;;26.60;16.90;;;2.20;99.90;;;;;;4953271;28;20120;-77
2021/12/06 12:33:12;;;;;;;30.43;17.90;;;2.20;99.90;;;;;;4952682;28;20175;-77
2021/12/06 12:35:41;;;;;;;31.63;17.87;;;2.20;99.90;;;;;;4952860;28;20029;-77
2021/12/06 12:38:09;;;;;;;30.93;18.07;;;2.20;99.90;;;;;;5004140;28;20023;-77
2021/12/06 12:40:48;;;;;;;31.30;18.47;;;2.20;99.90;;;;;;4952759;28;20062;-77
2021/12/06 12:43:18;;;;;;;30.03;17.83;;;2.20;99.90;;;;;;5035221;28;20112;-77
2021/12/06 12:45:56;;;;;;;32.20;18.37;;;2.20;99.90;;;;;;5053703;28;20103;-77
2021/12/06 12:48:25;;;;;;;28.73;17.53;;;2.20;99.90;;;;;;5052771;28;20036;-77
2021/12/06 12:51:05;;;;;;;28.33;17.23;;;2.20;99.90;;;;;;5053192;28;20032;-77
2021/12/06 12:53:49;;;;;;;30.47;18.60;;;2.20;99.90;;;;;;5052936;28;20428;-77
2021/12/06 12:56:21;;;;;;;29.00;17.17;;;2.20;99.90;;;;;;5001203;28;20468;-77